KDUG

Bisbee Douglas International Airport

Douglas Bisbee, Arizona, USA
METAR KDUG 230656Z AUTO 29003KT 10SM CLR 01/M04 A3015 RMK AO2 SLP193 T00061039 401391028
Observed Flight Rules
Feb-23 @ 06:56 UTC (an hour ago) Visual Flight Rules
Wind Visibility Clouds
290° at 3 knots 10 miles
  • Clear skies
Temperatures Readings
Current 1°C / 34°F
Dewpoint -4°C / 25°F
Humidity 70%
Altimeter 30.15" Hg
Pressure 1019.3 hPa
Elevation 1265
METAR KDUG 230656Z AUTO 29003KT 10SM CLR 01/M04 A3015 RMK AO2 SLP193 T00061039 401391028
Observed Flight Rules
Feb-23 @ 06:56 UTC
(an hour ago)
VFR
Wind Visibility
290° at 3 knots 10 miles
Clouds
  • Clear skies
Temperature Dewpoint
1°C / 34°F -4°C / 25°F
Humidity Altimeter Pressure
70% 30.15" Hg 1019.3 hPa